createdAt,value
2019-05-17T00:00:18.810Z,11.97
2019-05-17T00:02:47.318Z,12.40
2019-05-17T00:05:17.788Z,11.88
2019-05-17T00:07:47.470Z,12.23
2019-05-17T00:10:17.385Z,12.33
2019-05-17T00:12:47.121Z,12.43
2019-05-17T00:15:16.928Z,12.67
2019-05-17T00:17:46.962Z,13.00
2019-05-17T00:20:17.430Z,12.60
2019-05-17T00:22:47.107Z,12.60
2019-05-17T00:25:17.609Z,11.97
2019-05-17T00:27:47.373Z,12.60
2019-05-17T00:30:17.766Z,12.15
2019-05-17T00:32:47.617Z,12.43
2019-05-17T00:35:17.791Z,13.10
2019-05-17T00:37:46.717Z,12.17
2019-05-17T00:40:16.687Z,13.27
2019-05-17T00:42:46.641Z,13.07
2019-05-17T00:45:17.293Z,12.87
2019-05-17T00:47:46.873Z,12.93
2019-05-17T00:50:16.984Z,13.60
2019-05-17T00:52:47.550Z,13.10
2019-05-17T00:55:17.555Z,12.50
2019-05-17T00:57:47.496Z,12.53
2019-05-17T01:00:17.341Z,12.77
2019-05-17T01:02:46.776Z,12.60
2019-05-17T01:05:17.196Z,12.93
2019-05-17T01:07:47.031Z,12.73
2019-05-17T01:10:16.616Z,12.37
2019-05-17T01:12:45.269Z,11.40
2019-05-17T01:15:16.576Z,13.50
2019-05-17T01:17:47.104Z,12.90
2019-05-17T01:20:17.144Z,12.15
2019-05-17T01:22:47.489Z,13.07
2019-05-17T01:25:17.119Z,12.45
2019-05-17T01:27:47.505Z,12.27
2019-05-17T01:30:17.558Z,12.33
2019-05-17T01:32:46.557Z,12.50
2019-05-17T01:35:16.828Z,12.07
2019-05-17T01:37:47.469Z,12.40
2019-05-17T01:40:17.591Z,13.60
2019-05-17T01:42:46.679Z,14.00
2019-05-17T01:45:16.691Z,12.63
2019-05-17T01:47:47.534Z,12.50
2019-05-17T01:50:17.497Z,13.40
2019-05-17T01:52:46.397Z,13.23
2019-05-17T01:55:17.204Z,12.57
2019-05-17T01:57:47.393Z,13.07
2019-05-17T02:00:17.546Z,11.97
2019-05-17T02:02:53.701Z,11.93
2019-05-17T02:05:22.243Z,13.30
2019-05-17T02:07:50.818Z,12.60
2019-05-17T02:10:19.637Z,13.37
2019-05-17T02:12:49.091Z,12.63
2019-05-17T02:15:18.201Z,11.70
2019-05-17T02:17:47.055Z,12.43
2019-05-17T02:20:17.074Z,13.07
2019-05-17T02:22:47.461Z,12.60
2019-05-17T02:25:17.772Z,12.77
2019-05-17T02:27:46.276Z,12.20
2019-05-17T02:30:15.501Z,12.37
2019-05-17T02:32:44.970Z,12.77
2019-05-17T02:35:15.090Z,12.93
2019-05-17T02:37:44.005Z,12.27
2019-05-17T02:40:14.449Z,13.20
2019-05-17T02:42:43.743Z,12.53
2019-05-17T02:45:13.435Z,13.50
2019-05-17T02:47:43.729Z,12.40
2019-05-17T02:50:13.353Z,12.73
2019-05-17T02:52:43.797Z,12.00
2019-05-17T02:55:13.096Z,13.20
2019-05-17T02:57:43.242Z,12.67
2019-05-17T03:00:13.639Z,13.43
2019-05-17T03:02:43.451Z,12.33
2019-05-17T03:05:13.138Z,12.10
2019-05-17T03:07:44.096Z,13.30
2019-05-17T03:10:22.767Z,13.83
2019-05-17T03:12:44.421Z,13.47
2019-05-17T03:15:13.315Z,15.57
2019-05-17T03:17:43.404Z,15.67
2019-05-17T03:20:13.730Z,15.33
2019-05-17T03:22:43.956Z,14.83
2019-05-17T03:25:13.936Z,15.03
2019-05-17T03:27:43.250Z,15.33
2019-05-17T03:30:17.161Z,16.80
2019-05-17T03:32:47.888Z,16.07
2019-05-17T03:35:17.284Z,17.77
2019-05-17T03:37:44.837Z,18.47
2019-05-17T03:40:34.787Z,18.00
2019-05-17T03:42:44.541Z,19.57
2019-05-17T03:45:13.892Z,19.47
2019-05-17T03:47:44.621Z,18.50
2019-05-17T03:50:13.809Z,17.77
2019-05-17T03:52:44.442Z,18.13
2019-05-17T03:55:13.593Z,17.87
2019-05-17T03:57:44.014Z,16.03
2019-05-17T04:00:13.472Z,16.63
2019-05-17T04:02:44.532Z,16.07
2019-05-17T04:05:13.038Z,16.30
2019-05-17T04:07:43.418Z,16.17
2019-05-17T04:10:15.040Z,15.50
2019-05-17T04:12:44.181Z,15.67
2019-05-17T04:15:14.675Z,15.73
2019-05-17T04:17:44.258Z,15.80
2019-05-17T04:20:13.990Z,16.15
2019-05-17T04:22:44.201Z,17.07
2019-05-17T04:25:13.843Z,15.38
2019-05-17T04:27:43.811Z,16.63
2019-05-17T04:30:13.112Z,16.20
2019-05-17T04:32:44.167Z,16.40
2019-05-17T04:35:13.501Z,17.10
2019-05-17T04:37:44.616Z,16.80
2019-05-17T04:40:14.073Z,16.33
2019-05-17T04:42:44.032Z,17.80
2019-05-17T04:45:13.394Z,18.67
2019-05-17T04:47:44.515Z,18.77
2019-05-17T04:50:13.490Z,19.30
2019-05-17T04:52:43.019Z,19.67
2019-05-17T04:55:13.564Z,21.40
2019-05-17T04:57:44.057Z,19.33
2019-05-17T05:00:13.511Z,19.73
2019-05-17T05:02:43.604Z,20.17
2019-05-17T05:05:13.917Z,21.53
2019-05-17T05:07:43.324Z,21.43
2019-05-17T05:10:14.007Z,21.47
2019-05-17T05:12:43.878Z,20.77
2019-05-17T05:15:12.890Z,21.73
2019-05-17T05:17:42.600Z,21.47
2019-05-17T05:20:13.267Z,21.70
2019-05-17T05:22:42.875Z,21.70
2019-05-17T05:25:12.498Z,22.43
2019-05-17T05:27:42.676Z,22.57
2019-05-17T05:30:12.167Z,23.30
2019-05-17T05:32:42.791Z,24.23
2019-05-17T05:35:12.373Z,23.98
2019-05-17T05:37:42.423Z,23.27
2019-05-17T05:40:12.620Z,23.60
2019-05-17T05:42:42.709Z,23.60
2019-05-17T05:45:12.360Z,25.73
2019-05-17T05:47:42.474Z,23.87
2019-05-17T05:50:12.697Z,25.90
2019-05-17T05:52:42.247Z,26.17
2019-05-17T05:55:12.339Z,25.40
2019-05-17T05:57:42.118Z,26.65
2019-05-17T06:00:13.443Z,27.32
2019-05-17T06:02:42.270Z,28.85
2019-05-17T06:05:14.675Z,30.70
2019-05-17T06:07:42.444Z,29.87
2019-05-17T06:10:12.933Z,31.30
2019-05-17T06:12:43.446Z,28.27
2019-05-17T06:15:12.995Z,30.00
2019-05-17T06:17:42.775Z,27.40
2019-05-17T06:20:12.282Z,27.70
2019-05-17T06:22:42.769Z,28.33
2019-05-17T06:25:14.871Z,27.23
2019-05-17T06:27:41.697Z,26.63
2019-05-17T06:30:12.587Z,28.00
2019-05-17T06:32:43.246Z,27.37
2019-05-17T06:35:12.634Z,27.25
2019-05-17T06:37:42.265Z,25.10
2019-05-17T06:40:13.104Z,26.87
2019-05-17T06:42:45.280Z,26.55
2019-05-17T06:45:13.129Z,25.65
2019-05-17T06:47:42.668Z,26.80
2019-05-17T06:50:14.333Z,25.97
2019-05-17T06:52:43.479Z,26.70
2019-05-17T06:55:13.031Z,25.47
2019-05-17T06:57:43.376Z,24.72
2019-05-17T07:00:19.750Z,26.25
2019-05-17T07:02:43.741Z,25.30
2019-05-17T07:05:14.096Z,24.67
2019-05-17T07:07:42.646Z,24.92
2019-05-17T07:10:12.267Z,23.90
2019-05-17T07:12:54.999Z,25.25
2019-05-17T07:15:11.625Z,25.90
2019-05-17T07:17:40.385Z,25.45
2019-05-17T07:20:10.317Z,24.52
2019-05-17T07:22:40.839Z,24.60
2019-05-17T07:25:10.726Z,23.52
2019-05-17T07:27:45.336Z,26.77
2019-05-17T07:30:11.103Z,24.65
2019-05-17T07:32:40.598Z,23.77
2019-05-17T07:35:10.825Z,24.37
2019-05-17T07:37:39.926Z,24.50
2019-05-17T07:40:10.847Z,21.62
2019-05-17T07:42:39.715Z,22.22
2019-05-17T07:45:10.091Z,26.17
2019-05-17T07:47:40.447Z,27.13
2019-05-17T07:50:11.497Z,27.50
2019-05-17T07:52:40.103Z,27.48
2019-05-17T07:55:10.975Z,25.82
2019-05-17T07:57:41.012Z,24.07
2019-05-17T08:00:10.488Z,20.82
2019-05-17T08:02:40.209Z,22.40
2019-05-17T08:05:10.520Z,19.42
2019-05-17T08:07:40.279Z,20.20
2019-05-17T08:10:11.048Z,20.17
2019-05-17T08:12:41.012Z,22.37
2019-05-17T08:15:11.183Z,19.67
2019-05-17T08:17:40.037Z,19.30
2019-05-17T08:20:10.342Z,17.52
2019-05-17T08:22:40.118Z,18.57
2019-05-17T08:25:10.251Z,18.85
2019-05-17T08:27:40.489Z,19.90
2019-05-17T08:30:11.940Z,16.95
2019-05-17T08:32:40.612Z,18.10
2019-05-17T08:35:11.332Z,15.48
2019-05-17T08:37:42.313Z,15.18
2019-05-17T08:40:10.782Z,16.50
2019-05-17T08:42:40.758Z,13.60
2019-05-17T08:45:09.966Z,14.80
2019-05-17T08:47:39.633Z,12.00
2019-05-17T08:50:11.255Z,11.80
2019-05-17T08:52:40.244Z,14.15
2019-05-17T08:55:09.836Z,15.00
2019-05-17T08:57:39.960Z,13.08
2019-05-17T09:00:10.692Z,13.10
2019-05-17T09:02:40.962Z,12.70
2019-05-17T09:05:10.221Z,11.38
2019-05-17T09:07:40.111Z,13.55
2019-05-17T09:10:09.925Z,14.25
2019-05-17T09:12:40.914Z,14.33
2019-05-17T09:15:10.673Z,13.85
2019-05-17T09:17:39.847Z,14.28
2019-05-17T09:20:10.581Z,13.70
2019-05-17T09:22:39.572Z,15.50
2019-05-17T09:25:13.516Z,13.80
2019-05-17T09:27:39.760Z,14.33
2019-05-17T09:30:10.707Z,14.87
2019-05-17T09:32:40.502Z,14.80
2019-05-17T09:35:09.981Z,14.68
2019-05-17T09:37:41.377Z,15.38
2019-05-17T09:40:09.658Z,14.43
2019-05-17T09:42:40.769Z,15.08
2019-05-17T09:45:09.594Z,10.75
2019-05-17T09:47:39.697Z,11.28
2019-05-17T09:50:10.006Z,10.15
2019-05-17T09:52:40.518Z,10.43
2019-05-17T09:55:09.968Z,9.73
2019-05-17T09:57:40.779Z,9.68
2019-05-17T10:00:10.159Z,8.33
2019-05-17T10:02:40.229Z,8.33
2019-05-17T10:05:10.681Z,7.17
2019-05-17T10:07:40.283Z,9.25
2019-05-17T10:10:10.515Z,6.72
2019-05-17T10:12:40.333Z,7.00
2019-05-17T10:15:10.366Z,6.70
2019-05-17T10:17:38.983Z,6.45
2019-05-17T10:20:10.499Z,6.40
2019-05-17T10:22:40.215Z,5.97
2019-05-17T10:25:09.679Z,7.17
2019-05-17T10:27:40.421Z,6.75
2019-05-17T10:30:10.563Z,5.80
2019-05-17T10:32:40.715Z,6.50
2019-05-17T10:35:10.247Z,6.20
2019-05-17T10:37:40.647Z,6.30
2019-05-17T10:40:10.740Z,6.30
2019-05-17T10:42:39.819Z,6.40
2019-05-17T10:45:10.865Z,6.22
2019-05-17T10:47:39.990Z,5.72
2019-05-17T10:50:10.889Z,6.10
2019-05-17T10:52:41.021Z,5.78
2019-05-17T10:55:10.795Z,5.30
2019-05-17T10:57:39.390Z,5.33
2019-05-17T11:00:10.075Z,5.70
2019-05-17T11:02:38.786Z,5.67
2019-05-17T11:05:07.621Z,5.55
2019-05-17T11:07:36.095Z,5.75
2019-05-17T11:10:06.111Z,5.25
2019-05-17T11:12:34.579Z,6.03
2019-05-17T11:15:11.009Z,5.53
2019-05-17T11:17:33.942Z,5.35
2019-05-17T11:20:02.536Z,5.33
2019-05-17T11:22:31.004Z,6.00
2019-05-17T11:24:59.493Z,6.00
2019-05-17T11:27:27.995Z,6.15
2019-05-17T11:29:56.448Z,4.97
2019-05-17T11:32:24.945Z,5.72
2019-05-17T11:34:53.423Z,6.17
2019-05-17T11:37:21.929Z,9.70
2019-05-17T11:39:50.401Z,6.25
2019-05-17T11:42:18.904Z,5.08
2019-05-17T11:44:47.384Z,5.78
2019-05-17T11:47:15.904Z,5.50
2019-05-17T11:49:44.377Z,6.85
2019-05-17T11:52:12.873Z,7.22
2019-05-17T11:54:41.360Z,7.67
2019-05-17T11:57:12.325Z,6.20
2019-05-17T11:59:40.126Z,5.35
2019-05-17T12:02:08.656Z,6.30
2019-05-17T12:04:37.503Z,6.42
2019-05-17T12:07:06.253Z,6.17
2019-05-17T12:09:37.803Z,6.10
2019-05-17T12:12:05.174Z,5.85
2019-05-17T12:14:34.765Z,6.10
2019-05-17T12:17:05.380Z,6.47
2019-05-17T12:19:37.263Z,6.33
2019-05-17T12:22:07.434Z,6.12
2019-05-17T12:24:36.457Z,6.47
2019-05-17T12:27:05.432Z,6.05
2019-05-17T12:29:34.340Z,6.22
2019-05-17T12:32:03.381Z,6.25
2019-05-17T12:34:31.919Z,5.85
2019-05-17T12:37:00.418Z,6.40
2019-05-17T12:39:28.901Z,5.58
2019-05-17T12:41:57.462Z,5.30
2019-05-17T12:44:26.089Z,5.78
2019-05-17T12:46:54.605Z,6.17
2019-05-17T12:49:23.109Z,6.22
2019-05-17T12:51:51.622Z,6.00
2019-05-17T12:54:20.100Z,6.05
2019-05-17T12:56:48.602Z,6.12
2019-05-17T12:59:17.151Z,6.55
2019-05-17T13:01:45.704Z,6.62
2019-05-17T13:04:14.202Z,6.28
2019-05-17T13:06:42.702Z,6.35
2019-05-17T13:09:11.250Z,5.50
2019-05-17T13:11:39.758Z,5.75
2019-05-17T13:14:08.247Z,6.17
2019-05-17T13:16:37.530Z,6.60
2019-05-17T13:19:05.997Z,6.10
2019-05-17T13:21:34.573Z,6.80
2019-05-17T13:24:03.051Z,7.35
2019-05-17T13:26:31.544Z,6.95
2019-05-17T13:29:00.021Z,6.55
2019-05-17T13:31:28.542Z,6.03
2019-05-17T13:33:57.026Z,6.53
2019-05-17T13:36:25.531Z,5.80
2019-05-17T13:38:54.015Z,5.78
2019-05-17T13:41:22.514Z,6.35
2019-05-17T13:43:50.994Z,6.60
2019-05-17T13:46:32.231Z,6.40
2019-05-17T13:48:49.851Z,6.67
2019-05-17T13:51:18.345Z,6.58
2019-05-17T13:53:46.816Z,6.35
2019-05-17T13:56:15.324Z,6.42
2019-05-17T13:58:43.801Z,6.37
2019-05-17T14:01:12.293Z,6.75
2019-05-17T14:03:40.776Z,6.12
2019-05-17T14:06:09.323Z,7.08
2019-05-17T14:08:37.756Z,7.05
2019-05-17T14:11:06.251Z,6.87
2019-05-17T14:13:34.743Z,6.40
2019-05-17T14:16:03.235Z,6.87
2019-05-17T14:18:31.705Z,6.55
2019-05-17T14:21:00.180Z,5.83
2019-05-17T14:23:30.097Z,5.70
2019-05-17T14:25:59.425Z,6.25
2019-05-17T14:28:27.904Z,6.25
2019-05-17T14:30:56.380Z,6.33
2019-05-17T14:33:24.892Z,5.53
2019-05-17T14:35:53.351Z,6.72
2019-05-17T14:38:21.857Z,5.83
2019-05-17T14:41:08.133Z,6.25
2019-05-17T14:43:20.547Z,6.87
2019-05-17T14:45:49.017Z,5.92
2019-05-17T14:48:17.516Z,6.20
2019-05-17T14:50:45.995Z,6.65
2019-05-17T14:53:14.504Z,6.20
2019-05-17T14:55:42.972Z,6.72
2019-05-17T14:58:11.484Z,7.92
2019-05-17T15:00:39.944Z,7.30
2019-05-17T15:03:08.447Z,7.15
2019-05-17T15:05:36.934Z,7.70
2019-05-17T15:08:05.437Z,7.45
2019-05-17T15:10:33.985Z,6.55
2019-05-17T15:13:02.497Z,7.30
2019-05-17T15:15:30.961Z,7.25
2019-05-17T15:17:59.710Z,8.45
2019-05-17T15:20:28.184Z,9.43
2019-05-17T15:22:56.677Z,7.22
2019-05-17T15:25:25.374Z,8.35
2019-05-17T15:27:54.175Z,7.92
2019-05-17T15:30:22.916Z,7.55
2019-05-17T15:32:51.529Z,7.70
2019-05-17T15:35:20.205Z,8.03
2019-05-17T15:37:48.967Z,8.00
2019-05-17T15:40:17.861Z,8.08
2019-05-17T15:42:46.630Z,8.10
2019-05-17T15:45:15.443Z,7.95
2019-05-17T15:47:44.159Z,8.58
2019-05-17T15:50:12.934Z,8.18
2019-05-17T15:52:41.670Z,8.05
2019-05-17T15:55:10.650Z,7.95
2019-05-17T15:57:39.400Z,7.85
2019-05-17T16:00:08.562Z,7.30
2019-05-17T16:02:37.270Z,8.45
2019-05-17T16:05:06.342Z,8.70
2019-05-17T16:07:35.098Z,9.28
2019-05-17T16:10:06.311Z,9.13
2019-05-17T16:12:34.815Z,9.53
2019-05-17T16:15:04.359Z,8.35
2019-05-17T16:17:32.864Z,9.13
2019-05-17T16:20:01.370Z,9.10
2019-05-17T16:22:29.845Z,8.53
2019-05-17T16:24:58.316Z,9.90
2019-05-17T16:27:26.828Z,8.68
2019-05-17T16:29:55.305Z,8.98
2019-05-17T16:32:23.816Z,9.28
2019-05-17T16:34:52.552Z,8.53
2019-05-17T16:37:21.120Z,9.13
2019-05-17T16:39:49.738Z,8.35
2019-05-17T16:42:18.222Z,8.23
2019-05-17T16:44:46.720Z,8.43
2019-05-17T16:47:15.198Z,9.63
2019-05-17T16:49:43.695Z,9.55
2019-05-17T16:52:12.186Z,9.73
2019-05-17T16:54:40.681Z,9.73
2019-05-17T16:57:09.162Z,10.23
2019-05-17T16:59:37.742Z,10.48
2019-05-17T17:02:06.361Z,10.45
2019-05-17T17:04:34.869Z,10.28
2019-05-17T17:07:03.348Z,10.48
2019-05-17T17:09:31.947Z,10.63
2019-05-17T17:12:00.505Z,10.25
2019-05-17T17:14:29.033Z,11.30
2019-05-17T17:16:57.512Z,11.73
2019-05-17T17:19:26.092Z,11.65
2019-05-17T17:21:54.572Z,11.95
2019-05-17T17:24:23.084Z,11.38
2019-05-17T17:26:51.590Z,12.13
2019-05-17T17:29:20.103Z,11.75
2019-05-17T17:31:48.590Z,11.88
2019-05-17T17:34:17.099Z,12.20
2019-05-17T17:36:45.584Z,12.23
2019-05-17T17:39:14.129Z,11.28
2019-05-17T17:41:42.616Z,11.28
2019-05-17T17:44:11.118Z,11.57
2019-05-17T17:46:39.603Z,11.73
2019-05-17T17:49:08.111Z,11.35
2019-05-17T17:51:36.766Z,12.53
2019-05-17T17:54:05.342Z,12.53
2019-05-17T17:56:33.890Z,11.48
2019-05-17T17:59:02.406Z,11.85
2019-05-17T18:01:30.881Z,11.78
2019-05-17T18:03:59.388Z,12.25
2019-05-17T18:06:27.896Z,12.03
2019-05-17T18:08:56.413Z,11.25
2019-05-17T18:11:24.887Z,11.50
2019-05-17T18:13:53.402Z,11.22
2019-05-17T18:16:21.877Z,11.10
2019-05-17T18:18:50.416Z,11.83
2019-05-17T18:21:18.885Z,11.05
2019-05-17T18:23:47.361Z,11.78
2019-05-17T18:26:15.895Z,11.48
2019-05-17T18:28:44.376Z,11.93
2019-05-17T18:31:12.901Z,11.45
2019-05-17T18:33:41.379Z,11.83
2019-05-17T18:36:09.888Z,12.28
2019-05-17T18:38:38.519Z,12.90
2019-05-17T18:41:07.104Z,13.38
2019-05-17T18:43:35.734Z,13.78
2019-05-17T18:46:04.394Z,15.00
2019-05-17T18:48:32.945Z,14.55
2019-05-17T18:51:01.453Z,14.07
2019-05-17T18:53:29.994Z,15.13
2019-05-17T18:55:58.583Z,14.80
2019-05-17T18:58:27.073Z,14.18
2019-05-17T19:00:55.649Z,15.20
2019-05-17T19:03:24.201Z,15.75
2019-05-17T19:05:52.778Z,16.07
2019-05-17T19:08:21.282Z,14.60
2019-05-17T19:10:49.799Z,14.43
2019-05-17T19:13:18.357Z,14.10
2019-05-17T19:15:46.863Z,14.40
2019-05-17T19:18:15.415Z,15.85
2019-05-17T19:20:43.991Z,14.43
2019-05-17T19:23:12.479Z,14.47
2019-05-17T19:25:41.018Z,14.53
2019-05-17T19:28:09.554Z,14.87
2019-05-17T19:30:38.066Z,15.08
2019-05-17T19:33:06.914Z,15.28
2019-05-17T19:35:35.420Z,16.93
2019-05-17T19:38:04.567Z,16.37
2019-05-17T19:40:33.159Z,17.17
2019-05-17T19:43:01.630Z,17.85
2019-05-17T19:45:30.140Z,17.70
2019-05-17T19:47:58.641Z,18.70
2019-05-17T19:50:27.141Z,18.17
2019-05-17T19:52:55.621Z,17.02
2019-05-17T19:55:24.133Z,17.80
2019-05-17T19:57:52.611Z,17.87
2019-05-17T20:00:22.526Z,17.83
2019-05-17T20:02:51.000Z,17.20
2019-05-17T20:05:19.579Z,16.75
2019-05-17T20:07:48.059Z,17.05
2019-05-17T20:10:17.714Z,16.30
2019-05-17T20:12:46.265Z,15.35
2019-05-17T20:15:17.812Z,15.35
2019-05-17T20:17:45.208Z,15.53
2019-05-17T20:20:14.027Z,16.77
2019-05-17T20:22:42.532Z,15.50
2019-05-17T20:25:11.347Z,17.50
2019-05-17T20:27:39.930Z,17.45
2019-05-17T20:30:09.445Z,17.65
2019-05-17T20:32:38.062Z,18.07
2019-05-17T20:35:07.779Z,18.17
2019-05-17T20:37:36.289Z,19.47
2019-05-17T20:40:06.937Z,19.33
2019-05-17T20:42:35.444Z,19.80
2019-05-17T20:45:08.012Z,19.63
2019-05-17T20:47:36.521Z,19.77
2019-05-17T20:50:08.865Z,18.90
2019-05-17T20:52:37.369Z,19.25
2019-05-17T20:55:06.982Z,19.10
2019-05-17T20:57:35.486Z,18.40
2019-05-17T21:00:05.959Z,18.67
2019-05-17T21:02:34.498Z,18.37
2019-05-17T21:05:03.102Z,18.63
2019-05-17T21:07:31.605Z,18.97
2019-05-17T21:10:00.089Z,18.70
2019-05-17T21:12:28.596Z,19.75
2019-05-17T21:14:57.084Z,20.40
2019-05-17T21:17:25.579Z,20.13
2019-05-17T21:19:54.064Z,19.70
2019-05-17T21:22:22.565Z,20.53
2019-05-17T21:24:51.043Z,21.03
2019-05-17T21:27:19.540Z,20.57
2019-05-17T21:29:48.017Z,24.10
2019-05-17T21:32:16.531Z,22.03
2019-05-17T21:34:45.024Z,21.30
2019-05-17T21:37:13.530Z,21.13
2019-05-17T21:39:42.193Z,19.57
2019-05-17T21:42:11.510Z,19.73
2019-05-17T21:44:40.038Z,20.27
2019-05-17T21:47:08.646Z,19.70
2019-05-17T21:49:37.142Z,19.30
2019-05-17T21:52:06.113Z,19.13
2019-05-17T21:54:34.594Z,18.10
2019-05-17T21:57:03.108Z,18.77
2019-05-17T21:59:31.652Z,17.87
2019-05-17T22:02:00.699Z,18.60
2019-05-17T22:04:29.185Z,17.33
2019-05-17T22:06:57.694Z,16.80
2019-05-17T22:09:26.172Z,17.70
2019-05-17T22:11:59.032Z,15.63
2019-05-17T22:14:27.515Z,15.80
2019-05-17T22:16:56.024Z,14.67
2019-05-17T22:19:24.509Z,11.93
2019-05-17T22:21:52.987Z,10.67
2019-05-17T22:24:21.493Z,9.20
2019-05-17T22:26:49.976Z,7.93
2019-05-17T22:29:18.484Z,14.47
2019-05-17T22:31:46.963Z,18.43
2019-05-17T22:34:15.474Z,19.60
2019-05-17T22:36:43.957Z,18.77
2019-05-17T22:39:12.464Z,17.80
2019-05-17T22:41:40.947Z,18.40
2019-05-17T22:44:09.462Z,18.77
2019-05-17T22:46:37.939Z,18.43
2019-05-17T22:49:06.473Z,18.50
2019-05-17T22:51:34.938Z,17.43
2019-05-17T22:54:03.519Z,17.13
2019-05-17T22:56:32.002Z,18.00
2019-05-17T22:59:00.508Z,18.63
2019-05-17T23:01:29.002Z,17.73
2019-05-17T23:03:57.501Z,17.93
2019-05-17T23:06:25.991Z,17.70
2019-05-17T23:08:54.519Z,17.80
2019-05-17T23:11:23.237Z,16.70
2019-05-17T23:13:51.735Z,16.20
2019-05-17T23:16:20.214Z,16.27
2019-05-17T23:19:06.020Z,17.87
2019-05-17T23:21:34.497Z,18.37
2019-05-17T23:24:03.010Z,19.87
2019-05-17T23:26:31.552Z,19.87
2019-05-17T23:29:00.166Z,20.20
2019-05-17T23:31:28.687Z,19.67
2019-05-17T23:33:57.191Z,19.30
2019-05-17T23:36:25.676Z,20.77
2019-05-17T23:38:54.173Z,20.53
2019-05-17T23:41:22.698Z,21.03
2019-05-17T23:43:51.177Z,19.87
2019-05-17T23:46:19.661Z,19.87
2019-05-17T23:48:48.169Z,19.47
2019-05-17T23:51:16.648Z,20.63
2019-05-17T23:53:45.160Z,19.57
2019-05-17T23:56:13.640Z,21.47
2019-05-17T23:58:42.154Z,19.37
